CheckWX is a tool to help pilots better visualize weather data.  It is not intended as a substitute for an official pre-flight weather briefing.

02:08:49 UTC

KLWB METAR
Greenbrier Valley Airport
Lewisburg, West Virginia, USA
Current

34 mins ago

KLWB 180135Z AUTO 03003KT 5SM -RA SCT001 BKN007 OVC012 02/02 A2984 RMK AO2 T00210020
Observed
Feb-18 @ 01:35 UTC
Wind
  • 030° at 3 KTS
Visibility
5 SM
Flight Rules
IFR
Conditions
Light Rain
Cloud Levels
  • Scattered at 100' AGL
  • Broken at 700' AGL
  • Overcast at 1,200' AGL
Temperature
C / 36°F
Dewpoint
C / 36°F
Humidity
100%
Altimeter
29.84" Hg
Pressure
1010.52 hPa
Previous

54 mins ago

KLWB 180115Z AUTO 03003KT 4SM -RA BKN001 OVC005 02/02 A2983 RMK AO2 T00210020
Observed
Feb-18 @ 01:15 UTC
Wind
  • 030° at 3 KTS
Visibility
4 SM
Flight Rules
LIFR
Conditions
Light Rain
Cloud Levels
  • Broken at 100' AGL
  • Overcast at 500' AGL
Temperature
C / 36°F
Dewpoint
C / 36°F
Humidity
100%
Altimeter
29.83" Hg
Pressure
1010.12 hPa
Previous

1 hour ago

KLWB 180055Z AUTO 03006KT 5SM RA BKN003 OVC010 02/02 A2983 RMK AO2 P0002 T00210020
Observed
Feb-18 @ 00:55 UTC
Wind
  • 030° at 6 KTS
Visibility
5 SM
Flight Rules
LIFR
Conditions
Rain
Cloud Levels
  • Broken at 300' AGL
  • Overcast at 1,000' AGL
Temperature
C / 36°F
Dewpoint
C / 36°F
Humidity
100%
Altimeter
29.83" Hg
Pressure
1010.12 hPa
Current Rain
0.02"